createdAt,value
2018-07-16T00:00:14.919Z,82.50
2018-07-16T00:02:43.389Z,82.80
2018-07-16T00:05:18.278Z,83.10
2018-07-16T00:07:46.728Z,83.00
2018-07-16T00:10:15.268Z,83.20
2018-07-16T00:12:43.832Z,83.60
2018-07-16T00:15:12.268Z,83.90
2018-07-16T00:17:41.225Z,83.90
2018-07-16T00:20:09.707Z,84.20
2018-07-16T00:22:38.157Z,83.90
2018-07-16T00:25:06.984Z,83.60
2018-07-16T00:27:35.475Z,84.00
2018-07-16T00:30:04.065Z,84.20
2018-07-16T00:32:32.536Z,83.80
2018-07-16T00:35:01.002Z,83.60
2018-07-16T00:37:29.475Z,83.70
2018-07-16T00:39:57.986Z,83.90
2018-07-16T00:42:26.429Z,83.50
2018-07-16T00:44:54.915Z,83.70
2018-07-16T00:47:23.361Z,84.10
2018-07-16T00:49:51.832Z,84.00
2018-07-16T00:52:20.280Z,84.70
2018-07-16T00:54:48.853Z,85.00
2018-07-16T00:57:17.343Z,84.70
2018-07-16T00:59:45.778Z,84.60
2018-07-16T01:02:14.206Z,84.70
2018-07-16T01:04:42.769Z,84.50
2018-07-16T01:07:11.197Z,84.60
2018-07-16T01:09:39.699Z,85.00
2018-07-16T01:12:08.224Z,85.20
2018-07-16T01:14:36.656Z,85.70
2018-07-16T01:19:33.469Z,85.80
2018-07-16T01:22:02.007Z,86.10
2018-07-16T01:24:30.442Z,85.90
2018-07-16T01:26:58.894Z,86.40
2018-07-16T01:29:27.328Z,87.10
2018-07-16T01:31:56.643Z,86.80
2018-07-16T01:34:25.147Z,86.80
2018-07-16T01:36:53.609Z,87.40
2018-07-16T01:39:22.042Z,86.80
2018-07-16T01:41:50.520Z,86.80
2018-07-16T01:44:18.996Z,87.00
2018-07-16T01:46:47.514Z,87.50
2018-07-16T01:49:15.964Z,88.00
2018-07-16T01:51:44.415Z,87.70
2018-07-16T01:54:12.869Z,87.90
2018-07-16T01:56:42.145Z,88.30
2018-07-16T01:59:10.605Z,88.80
2018-07-16T02:01:39.053Z,88.70
2018-07-16T02:04:07.648Z,89.00
2018-07-16T02:06:36.138Z,89.00
2018-07-16T02:09:04.735Z,88.70
2018-07-16T02:11:33.211Z,88.80
2018-07-16T02:14:01.772Z,90.00
2018-07-16T02:16:30.233Z,89.90
2018-07-16T02:18:58.659Z,90.20
2018-07-16T02:21:27.220Z,90.10
2018-07-16T02:23:55.688Z,90.20
2018-07-16T02:26:24.300Z,90.20
2018-07-16T02:28:52.826Z,90.00
2018-07-16T02:31:21.340Z,90.10
2018-07-16T02:33:49.788Z,90.10
2018-07-16T02:36:18.300Z,89.80
2018-07-16T02:38:46.744Z,89.30
2018-07-16T02:41:15.229Z,89.70
2018-07-16T02:43:50.389Z,89.40
2018-07-16T02:46:18.850Z,89.80
2018-07-16T02:48:47.355Z,89.90
2018-07-16T02:51:15.795Z,90.00
2018-07-16T02:53:44.318Z,90.00
2018-07-16T02:56:12.813Z,89.90
2018-07-16T02:58:41.207Z,90.00
2018-07-16T03:01:10.221Z,90.00
2018-07-16T03:03:38.686Z,90.30
2018-07-16T03:06:07.307Z,89.70
2018-07-16T03:08:35.847Z,89.30
2018-07-16T03:11:04.301Z,89.40
2018-07-16T03:13:32.781Z,89.20
2018-07-16T03:16:01.231Z,88.70
2018-07-16T03:18:29.775Z,89.40
2018-07-16T03:20:58.201Z,90.00
2018-07-16T03:23:26.754Z,89.70
2018-07-16T03:25:55.228Z,89.50
2018-07-16T03:28:23.742Z,89.50
2018-07-16T03:30:53.044Z,90.00
2018-07-16T03:33:21.537Z,90.00
2018-07-16T03:35:49.939Z,89.70
2018-07-16T03:38:18.510Z,89.60
2018-07-16T03:40:47.082Z,90.00
2018-07-16T03:43:15.671Z,90.20
2018-07-16T03:45:44.200Z,90.30
2018-07-16T03:48:12.834Z,90.50
2018-07-16T03:50:41.271Z,90.20
2018-07-16T03:53:10.431Z,90.30
2018-07-16T03:55:38.881Z,90.10
2018-07-16T03:58:07.290Z,89.70
2018-07-16T04:00:35.750Z,90.20
2018-07-16T04:03:04.272Z,90.10
2018-07-16T04:05:32.756Z,90.00
2018-07-16T04:08:01.232Z,90.00
2018-07-16T04:10:29.784Z,90.00
2018-07-16T04:12:58.225Z,90.40
2018-07-16T04:15:26.843Z,90.20
2018-07-16T04:17:55.310Z,90.40
2018-07-16T04:22:52.012Z,90.00
2018-07-16T04:25:20.629Z,89.70
2018-07-16T04:27:49.203Z,90.10
2018-07-16T04:30:18.658Z,89.60
2018-07-16T04:32:47.135Z,89.40
2018-07-16T04:35:15.659Z,89.60
2018-07-16T04:37:44.213Z,90.00
2018-07-16T04:40:12.781Z,89.90
2018-07-16T04:42:44.841Z,89.80
2018-07-16T04:45:14.334Z,89.80
2018-07-16T04:47:44.112Z,89.60
2018-07-16T04:50:13.216Z,90.00
2018-07-16T04:52:41.727Z,90.00
2018-07-16T04:55:11.436Z,90.20
2018-07-16T04:57:39.979Z,89.70
2018-07-16T05:00:08.688Z,89.30
2018-07-16T05:02:37.427Z,89.20
2018-07-16T05:05:06.781Z,89.30
2018-07-16T05:07:35.311Z,89.20
2018-07-16T05:10:03.792Z,89.10
2018-07-16T05:12:32.279Z,88.80
2018-07-16T05:15:00.932Z,88.30
2018-07-16T05:17:29.624Z,89.20
2018-07-16T05:19:59.272Z,88.30
2018-07-16T05:22:28.139Z,88.50
2018-07-16T05:24:56.663Z,88.40
2018-07-16T05:27:25.161Z,88.20
2018-07-16T05:29:53.969Z,88.00
2018-07-16T05:32:23.763Z,87.00
2018-07-16T05:34:52.469Z,87.20
2018-07-16T05:37:21.222Z,87.40
2018-07-16T05:39:50.668Z,87.40
2018-07-16T05:42:19.580Z,86.90
2018-07-16T05:44:48.357Z,87.50
2018-07-16T05:47:18.522Z,87.40
2018-07-16T05:49:47.498Z,87.20
2018-07-16T05:52:16.851Z,86.80
2018-07-16T05:54:45.483Z,87.10
2018-07-16T05:57:14.172Z,86.90
2018-07-16T05:59:42.926Z,86.60
2018-07-16T06:02:11.791Z,86.50
2018-07-16T06:04:40.697Z,86.30
2018-07-16T06:07:10.087Z,85.70
2018-07-16T06:09:38.936Z,85.40
2018-07-16T06:12:07.488Z,85.10
2018-07-16T06:14:36.046Z,84.70
2018-07-16T06:17:05.141Z,84.00
2018-07-16T06:19:33.682Z,83.50
2018-07-16T06:22:02.243Z,82.70
2018-07-16T06:24:30.713Z,82.70
2018-07-16T06:26:59.229Z,81.80
2018-07-16T06:29:27.784Z,81.80
2018-07-16T06:31:56.316Z,80.10
2018-07-16T06:34:24.957Z,79.90
2018-07-16T06:36:53.572Z,79.70
2018-07-16T06:39:22.155Z,79.40
2018-07-16T06:41:50.758Z,79.30
2018-07-16T06:44:19.239Z,78.30
2018-07-16T06:46:47.867Z,77.10
2018-07-16T06:49:16.421Z,76.00
2018-07-16T06:51:44.925Z,75.40
2018-07-16T06:54:13.480Z,74.50
2018-07-16T06:56:42.123Z,73.20
2018-07-16T06:59:10.710Z,71.00
2018-07-16T07:01:39.231Z,72.20
2018-07-16T07:04:07.699Z,69.90
2018-07-16T07:06:36.249Z,68.80
2018-07-16T07:09:05.019Z,69.00
2018-07-16T07:11:33.557Z,67.40
2018-07-16T07:14:02.203Z,69.40
2018-07-16T07:16:30.766Z,67.40
2018-07-16T07:18:59.262Z,67.90
2018-07-16T07:21:27.747Z,65.60
2018-07-16T07:23:56.334Z,65.20
2018-07-16T07:26:24.862Z,65.50
2018-07-16T07:28:53.407Z,64.70
2018-07-16T07:31:21.893Z,63.90
2018-07-16T07:33:50.448Z,63.60
2018-07-16T07:36:19.125Z,63.30
2018-07-16T07:38:47.712Z,62.90
2018-07-16T07:41:16.256Z,63.30
2018-07-16T07:43:44.858Z,63.20
2018-07-16T07:46:13.448Z,60.90
2018-07-16T07:48:41.938Z,60.60
2018-07-16T07:51:10.555Z,61.60
2018-07-16T07:53:39.163Z,60.80
2018-07-16T07:56:08.603Z,59.90
2018-07-16T07:58:37.132Z,59.40
2018-07-16T08:01:05.717Z,59.50
2018-07-16T08:03:34.334Z,58.70
2018-07-16T08:06:06.384Z,57.70
2018-07-16T08:08:35.848Z,57.40
2018-07-16T08:11:05.166Z,59.50
2018-07-16T08:13:34.032Z,57.50
2018-07-16T08:16:02.990Z,57.50
2018-07-16T08:18:31.722Z,56.10
2018-07-16T08:21:00.423Z,54.40
2018-07-16T08:23:28.995Z,55.50
2018-07-16T08:25:57.690Z,56.00
2018-07-16T08:28:26.336Z,54.40
2018-07-16T08:30:55.054Z,53.80
2018-07-16T08:33:24.670Z,53.80
2018-07-16T08:35:53.415Z,54.10
2018-07-16T08:38:22.034Z,54.80
2018-07-16T08:40:51.689Z,53.10
2018-07-16T08:43:20.437Z,52.80
2018-07-16T08:45:49.239Z,53.30
2018-07-16T08:48:17.797Z,54.30
2018-07-16T08:50:46.347Z,54.20
2018-07-16T08:53:14.914Z,52.30
2018-07-16T08:55:43.418Z,51.20
2018-07-16T08:58:12.040Z,51.40
2018-07-16T09:00:40.819Z,51.20
2018-07-16T09:03:09.344Z,49.00
2018-07-16T09:05:37.965Z,50.90
2018-07-16T09:08:06.569Z,48.00
2018-07-16T09:10:35.199Z,47.60
2018-07-16T09:13:03.865Z,49.60
2018-07-16T09:15:32.371Z,46.20
2018-07-16T09:18:00.964Z,48.50
2018-07-16T09:20:29.644Z,48.10
2018-07-16T09:22:58.233Z,46.60
2018-07-16T09:25:27.027Z,46.40
2018-07-16T09:27:55.593Z,44.50
2018-07-16T09:30:24.222Z,46.10
2018-07-16T09:32:52.809Z,44.10
2018-07-16T09:35:21.324Z,45.10
2018-07-16T09:37:50.010Z,44.40
2018-07-16T09:40:18.672Z,44.50
2018-07-16T09:42:47.253Z,43.60
2018-07-16T09:45:16.912Z,45.00
2018-07-16T09:47:45.497Z,43.30
2018-07-16T09:50:14.087Z,43.10
2018-07-16T09:52:42.750Z,43.70
2018-07-16T09:55:11.290Z,43.00
2018-07-16T09:57:39.933Z,43.10
2018-07-16T10:00:08.568Z,42.30
2018-07-16T10:02:37.073Z,43.70
2018-07-16T10:05:05.636Z,44.00
2018-07-16T10:07:34.253Z,43.80
2018-07-16T10:10:02.797Z,42.40
2018-07-16T10:12:31.366Z,41.50
2018-07-16T10:14:59.949Z,42.60
2018-07-16T10:17:28.698Z,42.40
2018-07-16T10:19:57.631Z,43.80
2018-07-16T10:24:54.408Z,42.50
2018-07-16T10:27:22.960Z,42.50
2018-07-16T10:29:51.454Z,42.50
2018-07-16T10:32:19.966Z,42.50
2018-07-16T10:34:48.547Z,42.90
2018-07-16T10:37:17.131Z,41.60
2018-07-16T10:39:45.628Z,41.30
2018-07-16T10:42:14.143Z,43.00
2018-07-16T10:44:42.752Z,40.90
2018-07-16T10:47:11.294Z,41.00
2018-07-16T10:49:40.826Z,41.60
2018-07-16T10:52:09.439Z,41.30
2018-07-16T10:54:37.959Z,40.20
2018-07-16T10:57:06.889Z,39.80
2018-07-16T10:59:35.598Z,41.00
2018-07-16T11:02:04.381Z,39.40
2018-07-16T11:04:32.808Z,41.00
2018-07-16T11:07:01.372Z,41.10
2018-07-16T11:09:30.028Z,39.30
2018-07-16T11:11:58.754Z,39.90
2018-07-16T11:14:27.340Z,40.80
2018-07-16T11:16:55.855Z,39.80
2018-07-16T11:19:24.403Z,39.80
2018-07-16T11:21:53.011Z,40.00
2018-07-16T11:24:21.616Z,39.80
2018-07-16T11:26:50.195Z,40.40
2018-07-16T11:29:19.957Z,39.30
2018-07-16T11:31:48.577Z,40.80
2018-07-16T11:34:17.271Z,38.60
2018-07-16T11:36:45.783Z,38.80
2018-07-16T11:39:14.991Z,39.20
2018-07-16T11:41:43.647Z,38.00
2018-07-16T11:44:13.320Z,39.00
2018-07-16T11:46:42.186Z,38.10
2018-07-16T11:49:12.098Z,38.30
2018-07-16T11:51:40.729Z,37.80
2018-07-16T11:54:09.186Z,37.20
2018-07-16T11:56:37.789Z,37.90
2018-07-16T11:59:06.376Z,38.70
2018-07-16T12:04:03.163Z,37.60
2018-07-16T12:06:31.763Z,36.50
2018-07-16T12:09:00.308Z,37.30
2018-07-16T12:11:29.638Z,36.40
2018-07-16T12:13:58.226Z,37.20
2018-07-16T12:16:26.784Z,37.00
2018-07-16T12:23:55.306Z,36.20
2018-07-16T12:26:26.891Z,36.30
2018-07-16T12:28:55.506Z,36.60
2018-07-16T12:31:24.172Z,35.80
2018-07-16T12:34:23.527Z,35.30
2018-07-16T12:36:52.173Z,35.20
2018-07-16T12:39:20.707Z,35.90
2018-07-16T12:41:49.620Z,35.00
2018-07-16T12:44:18.138Z,36.20
2018-07-16T12:46:46.770Z,36.50
2018-07-16T12:49:15.909Z,34.40
2018-07-16T12:51:44.458Z,35.70
2018-07-16T12:54:13.025Z,34.90
2018-07-16T12:56:41.632Z,35.10
2018-07-16T12:59:10.135Z,35.00
2018-07-16T13:01:38.799Z,36.10
2018-07-16T13:04:07.355Z,34.20
2018-07-16T13:06:35.907Z,35.80
2018-07-16T13:09:05.158Z,34.20
2018-07-16T13:11:33.672Z,34.40
2018-07-16T13:14:02.950Z,33.30
2018-07-16T13:16:36.303Z,33.70
2018-07-16T13:19:04.786Z,33.90
2018-07-16T13:21:40.206Z,32.20
2018-07-16T13:24:08.639Z,33.20
2018-07-16T13:26:37.135Z,33.10
2018-07-16T13:29:05.648Z,32.60
2018-07-16T13:31:34.564Z,31.50
2018-07-16T13:34:03.180Z,34.00
2018-07-16T13:36:32.135Z,34.10
2018-07-16T13:39:00.629Z,34.90
2018-07-16T13:41:29.138Z,36.00
2018-07-16T13:43:57.759Z,35.30
2018-07-16T13:46:26.284Z,35.10
2018-07-16T13:48:55.353Z,34.60
2018-07-16T13:51:23.844Z,35.10
2018-07-16T13:53:52.324Z,34.90
2018-07-16T13:56:20.920Z,35.60
2018-07-16T13:58:49.441Z,33.70
2018-07-16T14:01:18.877Z,34.10
2018-07-16T14:03:47.483Z,33.20
2018-07-16T14:06:16.351Z,33.90
2018-07-16T14:08:45.115Z,33.00
2018-07-16T14:11:14.194Z,33.10
2018-07-16T14:13:43.029Z,31.80
2018-07-16T14:16:12.904Z,32.20
2018-07-16T14:18:41.464Z,31.70
2018-07-16T14:21:10.106Z,31.40
2018-07-16T14:23:39.664Z,33.40
2018-07-16T14:26:08.232Z,32.20
2018-07-16T14:28:36.862Z,31.50
2018-07-16T14:31:05.597Z,32.80
2018-07-16T14:36:02.508Z,32.40
2018-07-16T14:38:31.509Z,31.50
2018-07-16T14:41:00.203Z,32.80
2018-07-16T14:43:29.019Z,31.80
2018-07-16T14:45:58.255Z,30.60
2018-07-16T14:48:26.989Z,31.60
2018-07-16T14:50:56.406Z,31.40
2018-07-16T14:53:26.273Z,31.40
2018-07-16T14:55:55.453Z,30.40
2018-07-16T14:58:24.050Z,30.70
2018-07-16T15:00:52.639Z,30.40
2018-07-16T15:03:21.865Z,30.80
2018-07-16T15:05:50.775Z,30.10
2018-07-16T15:08:19.571Z,31.90
2018-07-16T15:10:48.214Z,30.20
2018-07-16T15:13:16.793Z,31.70
2018-07-16T15:15:45.372Z,31.10
2018-07-16T15:18:13.952Z,31.10
2018-07-16T15:20:42.748Z,31.70
2018-07-16T15:23:11.259Z,31.60
2018-07-16T15:25:39.829Z,31.30
2018-07-16T15:28:10.108Z,31.90
2018-07-16T15:30:39.313Z,31.30
2018-07-16T15:33:09.038Z,32.30
2018-07-16T15:35:37.750Z,31.90
2018-07-16T15:38:06.720Z,32.20
2018-07-16T15:40:35.300Z,32.90
2018-07-16T15:43:03.989Z,32.70
2018-07-16T15:45:32.512Z,30.40
2018-07-16T15:48:03.987Z,30.90
2018-07-16T15:50:32.619Z,31.60
2018-07-16T15:53:01.128Z,30.60
2018-07-16T15:55:29.860Z,31.40
2018-07-16T15:57:58.435Z,30.20
2018-07-16T16:02:55.342Z,31.20
2018-07-16T16:05:24.030Z,30.00
2018-07-16T16:07:52.548Z,29.90
2018-07-16T16:10:21.044Z,31.50
2018-07-16T16:12:49.558Z,31.60
2018-07-16T16:15:18.320Z,30.10
2018-07-16T16:17:46.883Z,30.00
2018-07-16T16:20:15.447Z,30.80
2018-07-16T16:22:43.929Z,30.90
2018-07-16T16:25:12.391Z,30.60
2018-07-16T16:27:40.945Z,31.30
2018-07-16T16:30:09.438Z,31.20
2018-07-16T16:32:38.119Z,31.80
2018-07-16T16:35:06.638Z,32.30
2018-07-16T16:37:35.302Z,32.00
2018-07-16T16:40:03.825Z,32.70
2018-07-16T16:42:32.335Z,32.80
2018-07-16T16:45:00.856Z,32.50
2018-07-16T16:47:29.427Z,32.40
2018-07-16T16:49:57.959Z,32.30
2018-07-16T16:52:26.551Z,30.60
2018-07-16T16:55:02.180Z,30.60
2018-07-16T16:57:31.129Z,31.30
2018-07-16T16:59:59.604Z,31.90
2018-07-16T17:02:28.163Z,32.40
2018-07-16T17:04:56.674Z,33.20
2018-07-16T17:07:25.248Z,33.90
2018-07-16T17:09:53.732Z,33.50
2018-07-16T17:12:22.257Z,33.30
2018-07-16T17:14:50.744Z,34.00
2018-07-16T17:17:19.456Z,35.20
2018-07-16T17:19:49.029Z,35.70
2018-07-16T17:22:17.548Z,35.70
2018-07-16T17:24:46.157Z,35.00
2018-07-16T17:27:15.163Z,35.00
2018-07-16T17:29:43.766Z,36.10
2018-07-16T17:32:12.316Z,36.00
2018-07-16T17:34:41.815Z,36.50
2018-07-16T17:37:10.341Z,36.20
2018-07-16T17:39:39.030Z,35.80
2018-07-16T17:42:07.622Z,36.20
2018-07-16T17:47:04.557Z,36.20
2018-07-16T17:49:33.289Z,37.00
2018-07-16T17:52:01.739Z,37.50
2018-07-16T17:54:30.321Z,38.50
2018-07-16T17:56:58.964Z,39.40
2018-07-16T17:59:27.503Z,39.80
2018-07-16T18:01:56.010Z,40.10
2018-07-16T18:04:24.728Z,41.00
2018-07-16T18:06:53.269Z,41.10
2018-07-16T18:09:21.823Z,41.70
2018-07-16T18:12:02.901Z,41.70
2018-07-16T18:14:33.264Z,42.10
2018-07-16T18:17:09.614Z,42.50
2018-07-16T18:19:42.624Z,42.80
2018-07-16T18:22:16.759Z,44.10
2018-07-16T18:24:45.307Z,44.90
2018-07-16T18:27:13.904Z,46.20
2018-07-16T18:29:42.487Z,47.00
2018-07-16T18:32:11.768Z,48.40
2018-07-16T18:34:40.355Z,48.50
2018-07-16T18:37:09.280Z,49.40
2018-07-16T18:39:37.792Z,50.00
2018-07-16T18:42:06.449Z,50.80
2018-07-16T18:44:35.830Z,52.10
2018-07-16T18:47:04.559Z,53.00
2018-07-16T18:49:34.036Z,52.80
2018-07-16T18:52:03.528Z,53.10
2018-07-16T18:54:32.308Z,53.80
2018-07-16T18:57:00.932Z,53.80
2018-07-16T18:59:30.340Z,54.50
2018-07-16T19:01:59.993Z,54.70
2018-07-16T19:04:28.757Z,55.40
2018-07-16T19:09:36.515Z,56.10
2018-07-16T19:12:07.343Z,56.60
2018-07-16T19:14:36.098Z,57.10
2018-07-16T19:17:04.697Z,57.60
2018-07-16T19:19:33.386Z,57.80
2018-07-16T19:22:08.081Z,58.60
2018-07-16T19:24:39.083Z,59.70
2018-07-16T19:27:08.880Z,60.70
2018-07-16T19:32:10.584Z,61.10
2018-07-16T19:34:40.155Z,60.40
2018-07-16T19:37:09.110Z,61.40
2018-07-16T19:39:37.951Z,62.40
2018-07-16T19:42:07.546Z,63.50
2018-07-16T19:44:37.230Z,64.00
2018-07-16T19:47:06.129Z,64.40
2018-07-16T19:49:37.100Z,64.40
2018-07-16T19:52:05.903Z,65.40
2018-07-16T19:54:34.510Z,66.80
2018-07-16T19:57:03.856Z,66.40
2018-07-16T19:59:32.516Z,67.90
2018-07-16T20:02:01.294Z,68.20
2018-07-16T20:04:31.910Z,69.10
2018-07-16T20:07:01.591Z,68.40
2018-07-16T20:09:31.324Z,68.60
2018-07-16T20:11:59.893Z,69.40
2018-07-16T20:14:28.590Z,70.30
2018-07-16T20:16:57.378Z,69.50
2018-07-16T20:19:26.274Z,69.70
2018-07-16T20:21:54.910Z,69.20
2018-07-16T20:24:26.745Z,70.80
2018-07-16T20:26:55.609Z,71.50
2018-07-16T20:29:24.846Z,71.10
2018-07-16T20:31:53.631Z,71.20
2018-07-16T20:34:22.343Z,72.20
2018-07-16T20:36:50.945Z,72.70
2018-07-16T20:39:24.987Z,72.80
2018-07-16T20:41:53.590Z,72.80
2018-07-16T20:44:22.164Z,73.60
2018-07-16T20:46:50.868Z,73.40
2018-07-16T20:49:19.533Z,74.50
2018-07-16T20:51:51.246Z,73.70
2018-07-16T20:54:19.992Z,74.00
2018-07-16T20:56:48.567Z,74.40
2018-07-16T20:59:17.082Z,73.60
2018-07-16T21:01:45.693Z,74.00
2018-07-16T21:04:14.236Z,73.50
2018-07-16T21:06:42.792Z,74.10
2018-07-16T21:09:11.382Z,74.60
2018-07-16T21:11:40.851Z,74.20
2018-07-16T21:14:09.579Z,74.10
2018-07-16T21:16:39.022Z,73.30
2018-07-16T21:19:07.541Z,73.70
2018-07-16T21:21:36.275Z,74.10
2018-07-16T21:24:04.908Z,74.00
2018-07-16T21:26:33.528Z,73.90
2018-07-16T21:29:02.254Z,75.00
2018-07-16T21:31:30.823Z,75.00
2018-07-16T21:34:00.209Z,74.90
2018-07-16T21:36:29.621Z,74.90
2018-07-16T21:38:58.180Z,74.50
2018-07-16T21:41:26.727Z,74.20
2018-07-16T21:43:55.323Z,74.20
2018-07-16T21:46:23.874Z,73.40
2018-07-16T21:48:56.140Z,73.60
2018-07-16T21:51:25.653Z,74.20
2018-07-16T21:53:55.076Z,74.90
2018-07-16T21:56:24.356Z,75.90
2018-07-16T21:58:52.792Z,75.50
2018-07-16T22:01:21.375Z,76.50
2018-07-16T22:03:49.899Z,77.00
2018-07-16T22:06:18.547Z,77.20
2018-07-16T22:08:47.072Z,77.60
2018-07-16T22:11:15.602Z,77.50
2018-07-16T22:13:44.141Z,77.40
2018-07-16T22:16:12.783Z,77.80
2018-07-16T22:18:41.160Z,77.80
2018-07-16T22:21:09.654Z,78.60
2018-07-16T22:23:38.139Z,78.90
2018-07-16T22:26:06.683Z,78.80
2018-07-16T22:28:35.185Z,80.10
2018-07-16T22:31:03.659Z,80.50
2018-07-16T22:33:32.175Z,80.80
2018-07-16T22:36:00.664Z,79.50
2018-07-16T22:38:29.144Z,79.60
2018-07-16T22:40:57.625Z,79.80
2018-07-16T22:43:26.248Z,80.40
2018-07-16T22:45:54.705Z,80.30
2018-07-16T22:48:23.163Z,80.90
2018-07-16T22:50:51.637Z,81.20
2018-07-16T22:53:20.079Z,81.10
2018-07-16T22:55:50.224Z,81.00
2018-07-16T22:58:18.786Z,81.60
2018-07-16T23:00:47.228Z,82.10
2018-07-16T23:03:15.723Z,81.60
2018-07-16T23:05:44.329Z,81.20
2018-07-16T23:08:14.219Z,79.60
2018-07-16T23:10:42.675Z,79.00
2018-07-16T23:13:11.133Z,78.70
2018-07-16T23:15:39.571Z,78.50
2018-07-16T23:18:08.045Z,78.40
2018-07-16T23:20:36.550Z,79.10
2018-07-16T23:23:05.037Z,79.40
2018-07-16T23:25:33.619Z,79.30
2018-07-16T23:28:02.073Z,80.00
2018-07-16T23:30:30.658Z,80.10
2018-07-16T23:32:59.131Z,79.90
2018-07-16T23:35:27.632Z,80.60
2018-07-16T23:37:56.301Z,81.10
2018-07-16T23:40:24.795Z,81.20
2018-07-16T23:42:53.710Z,81.00
2018-07-16T23:45:22.248Z,81.10
2018-07-16T23:47:50.767Z,81.50
2018-07-16T23:50:19.280Z,80.90
2018-07-16T23:52:47.777Z,80.60
2018-07-16T23:55:16.253Z,80.20
2018-07-16T23:57:44.968Z,80.00
